Milford, MA (01757)

05:09 AM EDT die 29o March, anno 2017 (GMT -0400)
Dutcher Street | | Change Station

Elev 272 ft 42.14 °N, 71.55 °W | Updated 18 seconds ago

Aequaliter Nubila
Aequaliter Nubila
37.1 °F
Feels Like 37 °F
N
0.0
Ventus Variabilis Ventus from Magis Aquilo quam Eurus
Gusts 2.0 mph

Hodie
High -- | Low -- °F
--% Chance of Precip.
Yesterday
High -- | Low -- °F
Precip. -- in
Pressio 30.01 in
Visibilitas 10.0 milia passuum
Clouds Aequaliter Nubila 300 ft
Frigus Venti 37 °F
Frigus in quo Ros apparet 34 °F
Umor 87%
Rainfall 0.11 in
Snow Depth Not available.
6:33 AM 7:08 PM
New, 2% visible
METAR KSFZ 290856Z AUTO 36009G15KT 10SM OVC003 03/02 A2994 RMK AO2 SLP162 60000 T00280022 53010
Pressio 30.01 in
Visibilitas 10.0 milia passuum
Clouds Aequaliter Nubila 300 ft
Frigus Venti 37 °F
Frigus in quo Ros apparet 34 °F
Umor 87%
Rainfall 0.11 in
Snow Depth Not available.
6:33 AM 7:08 PM
New, 2% visible
METAR KSFZ 290856Z AUTO 36009G15KT 10SM OVC003 03/02 A2994 RMK AO2 SLP162 60000 T00280022 53010

Get Severe Weather Alerts

Thanks for signing up!

Be on the lookout for a verification email in your inbox.

You'll start receiving the daily forecast at 8 AM.

×

10-Day Weather Forecast

Almanac

Astronomy

Mar. 29, 2017 Rise Set
Actual Time
Civil Twilight
Nautical Twilight
Astronomical Twilight
Moon
Length Of Visible Light
Length of Day
Tomorrow will be .
, % of the Moon is Illuminated

Today's Extremes

State Highs State Lows

Community

WunderPhotos

Upload Photos

1,962,540 photos uploaded!

WunderBlog® & News

Nearby

Air Quality

  Air Quality AQ Index Pollutant
Not available.

Snow Depth

Station Depth Elevation

Earthquake Activity

City Distance Mag. Time & Date
Minimum magnitude displayed is 2.5.

Earthquake Activity

City Distance Mag. Time & Date
Minimum magnitude displayed is 2.5.

Coastal Water Temperatures

Locus Calor

Stations

Nearby Weather Stations

Station Location Temp Frigus Venti Frigus in quo Ros apparet Umor Ventus Precip. Elev Renovata Type
                   

Watches & Warnings

There are currently no watches in effect.